sensor_id;sensor_type;location;lat;lon;timestamp;temperature;humidity
21625;DHT22;10974;51.034;3.744;2022-07-22T00:01:56;23.70;99.90
21625;DHT22;10974;51.034;3.744;2022-07-22T00:04:21;23.70;99.90
21625;DHT22;10974;51.034;3.744;2022-07-22T00:06:47;23.70;99.90
21625;DHT22;10974;51.034;3.744;2022-07-22T00:09:13;23.60;99.90
21625;DHT22;10974;51.034;3.744;2022-07-22T00:11:38;23.60;99.90
21625;DHT22;10974;51.034;3.744;2022-07-22T00:14:04;23.60;99.90
21625;DHT22;10974;51.034;3.744;2022-07-22T00:16:30;23.60;99.90
21625;DHT22;10974;51.034;3.744;2022-07-22T00:18:56;23.60;99.90
21625;DHT22;10974;51.034;3.744;2022-07-22T00:21:22;23.60;99.90
21625;DHT22;10974;51.034;3.744;2022-07-22T00:23:47;23.60;99.90
21625;DHT22;10974;51.034;3.744;2022-07-22T00:26:13;23.60;99.90
21625;DHT22;10974;51.034;3.744;2022-07-22T00:28:39;23.60;99.90
21625;DHT22;10974;51.034;3.744;2022-07-22T00:31:05;23.60;99.90
21625;DHT22;10974;51.034;3.744;2022-07-22T00:33:31;23.60;99.90
21625;DHT22;10974;51.034;3.744;2022-07-22T00:35:57;23.50;99.90
21625;DHT22;10974;51.034;3.744;2022-07-22T00:38:22;23.60;99.90
21625;DHT22;10974;51.034;3.744;2022-07-22T00:40:48;23.60;99.90
21625;DHT22;10974;51.034;3.744;2022-07-22T00:43:14;23.50;99.90
21625;DHT22;10974;51.034;3.744;2022-07-22T00:45:39;23.60;99.90
21625;DHT22;10974;51.034;3.744;2022-07-22T00:48:06;23.50;99.90
21625;DHT22;10974;51.034;3.744;2022-07-22T00:50:31;23.50;99.90
21625;DHT22;10974;51.034;3.744;2022-07-22T00:52:57;23.50;99.90
21625;DHT22;10974;51.034;3.744;2022-07-22T00:55:23;23.50;99.90
21625;DHT22;10974;51.034;3.744;2022-07-22T00:57:48;23.50;81.40
21625;DHT22;10974;51.034;3.744;2022-07-22T01:00:20;23.50;99.90
21625;DHT22;10974;51.034;3.744;2022-07-22T01:02:46;23.50;99.90
21625;DHT22;10974;51.034;3.744;2022-07-22T01:05:12;23.50;49.20
21625;DHT22;10974;51.034;3.744;2022-07-22T01:07:38;23.50;85.90
21625;DHT22;10974;51.034;3.744;2022-07-22T01:10:05;23.50;92.60
21625;DHT22;10974;51.034;3.744;2022-07-22T01:12:31;23.50;95.90
21625;DHT22;10974;51.034;3.744;2022-07-22T01:14:57;23.50;99.90
21625;DHT22;10974;51.034;3.744;2022-07-22T01:17:23;23.50;99.90
21625;DHT22;10974;51.034;3.744;2022-07-22T01:19:50;23.50;99.90
21625;DHT22;10974;51.034;3.744;2022-07-22T01:22:16;23.50;76.30
21625;DHT22;10974;51.034;3.744;2022-07-22T01:24:41;23.50;58.00
21625;DHT22;10974;51.034;3.744;2022-07-22T01:27:07;23.50;39.50
21625;DHT22;10974;51.034;3.744;2022-07-22T01:29:33;23.50;30.00
21625;DHT22;10974;51.034;3.744;2022-07-22T01:31:59;23.50;1.60
21625;DHT22;10974;51.034;3.744;2022-07-22T01:34:25;23.50;1.00
21625;DHT22;10974;51.034;3.744;2022-07-22T01:36:50;23.50;1.00
21625;DHT22;10974;51.034;3.744;2022-07-22T01:39:16;23.50;9.10
21625;DHT22;10974;51.034;3.744;2022-07-22T01:41:43;23.50;10.10
21625;DHT22;10974;51.034;3.744;2022-07-22T01:44:09;23.50;32.90
21625;DHT22;10974;51.034;3.744;2022-07-22T01:46:34;23.50;91.30
21625;DHT22;10974;51.034;3.744;2022-07-22T01:49:00;23.50;96.00
21625;DHT22;10974;51.034;3.744;2022-07-22T01:51:26;23.50;99.40
21625;DHT22;10974;51.034;3.744;2022-07-22T01:53:52;23.50;99.90
21625;DHT22;10974;51.034;3.744;2022-07-22T01:56:17;23.40;99.90
21625;DHT22;10974;51.034;3.744;2022-07-22T01:58:43;23.50;79.00
21625;DHT22;10974;51.034;3.744;2022-07-22T02:01:09;23.40;57.30
21625;DHT22;10974;51.034;3.744;2022-07-22T02:03:35;23.40;32.20
21625;DHT22;10974;51.034;3.744;2022-07-22T02:06:01;23.40;3.10
21625;DHT22;10974;51.034;3.744;2022-07-22T02:08:27;23.40;1.00
21625;DHT22;10974;51.034;3.744;2022-07-22T02:10:52;23.40;1.00
21625;DHT22;10974;51.034;3.744;2022-07-22T02:13:18;23.40;1.00
21625;DHT22;10974;51.034;3.744;2022-07-22T02:15:44;23.40;16.00
21625;DHT22;10974;51.034;3.744;2022-07-22T02:18:14;23.40;48.90
21625;DHT22;10974;51.034;3.744;2022-07-22T02:20:40;23.40;71.90
21625;DHT22;10974;51.034;3.744;2022-07-22T02:23:06;23.40;53.20
21625;DHT22;10974;51.034;3.744;2022-07-22T02:25:33;23.40;56.00
21625;DHT22;10974;51.034;3.744;2022-07-22T02:27:59;23.40;25.90
21625;DHT22;10974;51.034;3.744;2022-07-22T02:30:24;23.40;6.60
21625;DHT22;10974;51.034;3.744;2022-07-22T02:32:50;23.40;1.00
21625;DHT22;10974;51.034;3.744;2022-07-22T02:35:16;23.40;1.00
21625;DHT22;10974;51.034;3.744;2022-07-22T02:37:41;23.40;1.00
21625;DHT22;10974;51.034;3.744;2022-07-22T02:40:07;23.30;1.00
21625;DHT22;10974;51.034;3.744;2022-07-22T02:42:33;23.40;1.00
21625;DHT22;10974;51.034;3.744;2022-07-22T02:44:59;23.40;1.00
21625;DHT22;10974;51.034;3.744;2022-07-22T02:47:25;23.40;1.00
21625;DHT22;10974;51.034;3.744;2022-07-22T02:49:51;23.40;6.00
21625;DHT22;10974;51.034;3.744;2022-07-22T02:52:17;23.40;3.10
21625;DHT22;10974;51.034;3.744;2022-07-22T02:54:43;23.30;22.70
21625;DHT22;10974;51.034;3.744;2022-07-22T02:57:09;23.30;33.60
21625;DHT22;10974;51.034;3.744;2022-07-22T02:59:34;23.30;25.10
21625;DHT22;10974;51.034;3.744;2022-07-22T03:02:00;23.30;21.10
21625;DHT22;10974;51.034;3.744;2022-07-22T03:04:26;23.30;26.20
21625;DHT22;10974;51.034;3.744;2022-07-22T03:06:52;23.30;67.60
21625;DHT22;10974;51.034;3.744;2022-07-22T03:09:17;23.30;99.90
21625;DHT22;10974;51.034;3.744;2022-07-22T03:11:43;23.30;99.90
21625;DHT22;10974;51.034;3.744;2022-07-22T03:14:09;23.30;99.90
21625;DHT22;10974;51.034;3.744;2022-07-22T03:16:34;23.30;99.90
21625;DHT22;10974;51.034;3.744;2022-07-22T03:19:00;23.30;99.90
21625;DHT22;10974;51.034;3.744;2022-07-22T03:21:26;23.30;99.90
21625;DHT22;10974;51.034;3.744;2022-07-22T03:23:52;23.30;99.90
21625;DHT22;10974;51.034;3.744;2022-07-22T03:26:20;23.30;99.90
21625;DHT22;10974;51.034;3.744;2022-07-22T03:28:46;23.30;99.90
21625;DHT22;10974;51.034;3.744;2022-07-22T03:31:12;23.30;99.90
21625;DHT22;10974;51.034;3.744;2022-07-22T03:33:38;23.30;99.90
21625;DHT22;10974;51.034;3.744;2022-07-22T03:36:04;23.30;99.90
21625;DHT22;10974;51.034;3.744;2022-07-22T03:38:31;23.30;99.90
21625;DHT22;10974;51.034;3.744;2022-07-22T03:40:57;23.30;99.90
21625;DHT22;10974;51.034;3.744;2022-07-22T03:43:22;23.30;99.90
21625;DHT22;10974;51.034;3.744;2022-07-22T03:45:48;23.30;99.90
21625;DHT22;10974;51.034;3.744;2022-07-22T03:48:14;23.30;99.90
21625;DHT22;10974;51.034;3.744;2022-07-22T03:50:39;23.30;99.90
21625;DHT22;10974;51.034;3.744;2022-07-22T03:53:05;23.30;99.90
21625;DHT22;10974;51.034;3.744;2022-07-22T03:55:31;23.30;99.90
21625;DHT22;10974;51.034;3.744;2022-07-22T03:57:56;23.30;99.90
21625;DHT22;10974;51.034;3.744;2022-07-22T04:00:22;23.30;99.90
21625;DHT22;10974;51.034;3.744;2022-07-22T04:02:48;23.30;99.90
21625;DHT22;10974;51.034;3.744;2022-07-22T04:05:13;23.30;99.90
21625;DHT22;10974;51.034;3.744;2022-07-22T04:07:39;23.30;99.90
21625;DHT22;10974;51.034;3.744;2022-07-22T04:10:05;23.30;99.90
21625;DHT22;10974;51.034;3.744;2022-07-22T04:12:36;23.30;99.90
21625;DHT22;10974;51.034;3.744;2022-07-22T04:15:04;23.30;99.90
21625;DHT22;10974;51.034;3.744;2022-07-22T04:17:30;23.30;99.90
21625;DHT22;10974;51.034;3.744;2022-07-22T04:19:56;23.30;99.90
21625;DHT22;10974;51.034;3.744;2022-07-22T04:22:23;23.30;99.90
21625;DHT22;10974;51.034;3.744;2022-07-22T04:24:48;23.30;99.90
21625;DHT22;10974;51.034;3.744;2022-07-22T04:27:14;23.30;99.90
21625;DHT22;10974;51.034;3.744;2022-07-22T04:29:40;23.30;99.90
21625;DHT22;10974;51.034;3.744;2022-07-22T04:32:05;23.30;49.50
21625;DHT22;10974;51.034;3.744;2022-07-22T04:34:31;23.20;8.50
21625;DHT22;10974;51.034;3.744;2022-07-22T04:36:57;23.30;1.00
21625;DHT22;10974;51.034;3.744;2022-07-22T04:39:23;23.20;1.00
21625;DHT22;10974;51.034;3.744;2022-07-22T04:41:49;23.20;83.70
21625;DHT22;10974;51.034;3.744;2022-07-22T04:44:14;23.30;99.90
21625;DHT22;10974;51.034;3.744;2022-07-22T04:46:40;23.30;99.90
21625;DHT22;10974;51.034;3.744;2022-07-22T04:49:05;23.20;99.90
21625;DHT22;10974;51.034;3.744;2022-07-22T04:51:31;23.30;99.90
21625;DHT22;10974;51.034;3.744;2022-07-22T04:53:57;23.20;99.90
21625;DHT22;10974;51.034;3.744;2022-07-22T04:56:22;23.30;99.90
21625;DHT22;10974;51.034;3.744;2022-07-22T04:58:48;23.30;99.90
21625;DHT22;10974;51.034;3.744;2022-07-22T05:01:14;23.20;56.60
21625;DHT22;10974;51.034;3.744;2022-07-22T05:03:40;23.30;99.90
21625;DHT22;10974;51.034;3.744;2022-07-22T05:06:06;23.20;97.70
21625;DHT22;10974;51.034;3.744;2022-07-22T05:08:32;23.20;99.90
21625;DHT22;10974;51.034;3.744;2022-07-22T05:10:58;23.20;99.90
21625;DHT22;10974;51.034;3.744;2022-07-22T05:13:23;23.20;84.60
21625;DHT22;10974;51.034;3.744;2022-07-22T05:15:49;23.20;99.90
21625;DHT22;10974;51.034;3.744;2022-07-22T05:18:15;23.20;99.90
21625;DHT22;10974;51.034;3.744;2022-07-22T05:20:41;23.20;99.90
21625;DHT22;10974;51.034;3.744;2022-07-22T05:23:07;23.30;99.90
21625;DHT22;10974;51.034;3.744;2022-07-22T05:25:33;23.30;99.90
21625;DHT22;10974;51.034;3.744;2022-07-22T05:27:58;23.30;99.90
21625;DHT22;10974;51.034;3.744;2022-07-22T05:30:24;23.30;99.90
21625;DHT22;10974;51.034;3.744;2022-07-22T05:32:51;23.20;99.90
21625;DHT22;10974;51.034;3.744;2022-07-22T05:35:16;23.20;99.90
21625;DHT22;10974;51.034;3.744;2022-07-22T05:37:42;23.20;73.50
21625;DHT22;10974;51.034;3.744;2022-07-22T05:40:08;23.20;99.90
21625;DHT22;10974;51.034;3.744;2022-07-22T05:42:34;23.20;26.90
21625;DHT22;10974;51.034;3.744;2022-07-22T05:45:00;23.20;49.10
21625;DHT22;10974;51.034;3.744;2022-07-22T05:47:26;23.20;21.90
21625;DHT22;10974;51.034;3.744;2022-07-22T05:49:51;23.20;14.30
21625;DHT22;10974;51.034;3.744;2022-07-22T05:52:17;23.20;33.90
21625;DHT22;10974;51.034;3.744;2022-07-22T05:54:43;23.20;87.40
21625;DHT22;10974;51.034;3.744;2022-07-22T05:57:09;23.20;46.60
21625;DHT22;10974;51.034;3.744;2022-07-22T05:59:36;22.70;99.90
21625;DHT22;10974;51.034;3.744;2022-07-22T06:02:02;19.60;99.90
21625;DHT22;10974;51.034;3.744;2022-07-22T06:04:28;18.90;99.90
21625;DHT22;10974;51.034;3.744;2022-07-22T06:06:53;18.70;99.90
21625;DHT22;10974;51.034;3.744;2022-07-22T06:09:19;18.70;99.90
21625;DHT22;10974;51.034;3.744;2022-07-22T06:11:45;18.80;99.90
21625;DHT22;10974;51.034;3.744;2022-07-22T06:14:11;18.80;99.90
21625;DHT22;10974;51.034;3.744;2022-07-22T06:16:37;18.80;99.90
21625;DHT22;10974;51.034;3.744;2022-07-22T06:19:03;18.80;99.90
21625;DHT22;10974;51.034;3.744;2022-07-22T06:21:29;18.80;99.90
21625;DHT22;10974;51.034;3.744;2022-07-22T06:23:54;18.90;99.90
21625;DHT22;10974;51.034;3.744;2022-07-22T06:26:20;18.90;99.90
21625;DHT22;10974;51.034;3.744;2022-07-22T06:28:46;19.00;99.90
21625;DHT22;10974;51.034;3.744;2022-07-22T06:31:12;19.00;99.90
21625;DHT22;10974;51.034;3.744;2022-07-22T06:33:37;18.90;99.90
21625;DHT22;10974;51.034;3.744;2022-07-22T06:36:04;19.10;99.90
21625;DHT22;10974;51.034;3.744;2022-07-22T06:38:31;19.20;99.90
21625;DHT22;10974;51.034;3.744;2022-07-22T06:40:57;19.20;99.90
21625;DHT22;10974;51.034;3.744;2022-07-22T06:43:22;19.20;99.90
21625;DHT22;10974;51.034;3.744;2022-07-22T06:45:48;19.30;99.90
21625;DHT22;10974;51.034;3.744;2022-07-22T06:48:14;19.40;99.90
21625;DHT22;10974;51.034;3.744;2022-07-22T06:50:39;19.40;99.90
21625;DHT22;10974;51.034;3.744;2022-07-22T06:53:05;19.50;99.90
21625;DHT22;10974;51.034;3.744;2022-07-22T06:55:31;19.50;99.90
21625;DHT22;10974;51.034;3.744;2022-07-22T06:57:57;19.60;99.90
21625;DHT22;10974;51.034;3.744;2022-07-22T07:00:23;19.70;99.90
21625;DHT22;10974;51.034;3.744;2022-07-22T07:02:49;19.70;99.90
21625;DHT22;10974;51.034;3.744;2022-07-22T07:05:15;19.70;99.90
21625;DHT22;10974;51.034;3.744;2022-07-22T07:07:41;19.70;99.90
21625;DHT22;10974;51.034;3.744;2022-07-22T07:10:07;19.50;99.90
21625;DHT22;10974;51.034;3.744;2022-07-22T07:12:35;19.70;99.90
21625;DHT22;10974;51.034;3.744;2022-07-22T07:15:01;19.90;99.90
21625;DHT22;10974;51.034;3.744;2022-07-22T07:17:26;19.90;99.90
21625;DHT22;10974;51.034;3.744;2022-07-22T07:19:52;19.80;99.90
21625;DHT22;10974;51.034;3.744;2022-07-22T07:22:18;19.90;99.90
21625;DHT22;10974;51.034;3.744;2022-07-22T07:24:44;19.90;99.90
21625;DHT22;10974;51.034;3.744;2022-07-22T07:27:09;19.80;99.90
21625;DHT22;10974;51.034;3.744;2022-07-22T07:29:35;19.80;99.90
21625;DHT22;10974;51.034;3.744;2022-07-22T07:32:01;19.90;99.90
21625;DHT22;10974;51.034;3.744;2022-07-22T07:34:27;19.80;99.90
21625;DHT22;10974;51.034;3.744;2022-07-22T07:36:52;19.90;99.90
21625;DHT22;10974;51.034;3.744;2022-07-22T07:39:18;19.90;99.90
21625;DHT22;10974;51.034;3.744;2022-07-22T07:41:44;19.90;99.90
21625;DHT22;10974;51.034;3.744;2022-07-22T07:44:09;19.90;99.90
21625;DHT22;10974;51.034;3.744;2022-07-22T07:46:35;19.80;99.90
21625;DHT22;10974;51.034;3.744;2022-07-22T07:49:00;19.80;99.90
21625;DHT22;10974;51.034;3.744;2022-07-22T07:51:26;19.80;99.90
21625;DHT22;10974;51.034;3.744;2022-07-22T07:53:52;19.80;99.90
21625;DHT22;10974;51.034;3.744;2022-07-22T07:56:18;19.90;99.90
21625;DHT22;10974;51.034;3.744;2022-07-22T07:58:43;20.10;99.90
21625;DHT22;10974;51.034;3.744;2022-07-22T08:01:09;20.00;99.90
21625;DHT22;10974;51.034;3.744;2022-07-22T08:03:34;20.20;99.90
21625;DHT22;10974;51.034;3.744;2022-07-22T08:06:00;20.30;99.90
21625;DHT22;10974;51.034;3.744;2022-07-22T08:08:26;20.40;99.90
21625;DHT22;10974;51.034;3.744;2022-07-22T08:10:52;20.40;99.90
21625;DHT22;10974;51.034;3.744;2022-07-22T08:13:18;20.50;99.90
21625;DHT22;10974;51.034;3.744;2022-07-22T08:15:44;20.40;57.40
21625;DHT22;10974;51.034;3.744;2022-07-22T08:18:09;20.40;99.90
21625;DHT22;10974;51.034;3.744;2022-07-22T08:20:35;20.60;99.90
21625;DHT22;10974;51.034;3.744;2022-07-22T08:23:01;20.70;99.90
21625;DHT22;10974;51.034;3.744;2022-07-22T08:25:27;20.50;1.00
21625;DHT22;10974;51.034;3.744;2022-07-22T08:27:53;20.50;1.00
21625;DHT22;10974;51.034;3.744;2022-07-22T08:30:19;20.40;54.70
21625;DHT22;10974;51.034;3.744;2022-07-22T08:32:46;20.60;1.00
21625;DHT22;10974;51.034;3.744;2022-07-22T08:35:12;20.60;99.90
21625;DHT22;10974;51.034;3.744;2022-07-22T08:37:38;20.70;1.00
21625;DHT22;10974;51.034;3.744;2022-07-22T08:40:06;20.70;14.80
21625;DHT22;10974;51.034;3.744;2022-07-22T08:42:37;20.60;99.90
21625;DHT22;10974;51.034;3.744;2022-07-22T08:45:03;20.60;99.90
21625;DHT22;10974;51.034;3.744;2022-07-22T08:47:29;20.50;1.00
21625;DHT22;10974;51.034;3.744;2022-07-22T08:49:55;20.60;99.90
21625;DHT22;10974;51.034;3.744;2022-07-22T08:52:21;20.70;99.90
21625;DHT22;10974;51.034;3.744;2022-07-22T08:54:46;20.70;99.90
21625;DHT22;10974;51.034;3.744;2022-07-22T08:57:13;20.60;99.90
21625;DHT22;10974;51.034;3.744;2022-07-22T08:59:50;20.70;1.00
21625;DHT22;10974;51.034;3.744;2022-07-22T09:02:16;20.70;1.00
21625;DHT22;10974;51.034;3.744;2022-07-22T09:04:59;20.90;1.00
21625;DHT22;10974;51.034;3.744;2022-07-22T09:09:56;21.00;1.00
21625;DHT22;10974;51.034;3.744;2022-07-22T09:12:22;21.20;99.90
21625;DHT22;10974;51.034;3.744;2022-07-22T09:14:53;21.20;99.90
21625;DHT22;10974;51.034;3.744;2022-07-22T09:17:30;21.30;1.00
21625;DHT22;10974;51.034;3.744;2022-07-22T09:20:00;21.30;1.00
21625;DHT22;10974;51.034;3.744;2022-07-22T09:22:39;21.40;1.00
21625;DHT22;10974;51.034;3.744;2022-07-22T09:25:29;21.50;99.90
21625;DHT22;10974;51.034;3.744;2022-07-22T09:30:40;21.50;1.00
21625;DHT22;10974;51.034;3.744;2022-07-22T09:33:07;21.60;1.00
21625;DHT22;10974;51.034;3.744;2022-07-22T09:35:33;21.60;99.90
21625;DHT22;10974;51.034;3.744;2022-07-22T09:38:02;21.90;34.00
21625;DHT22;10974;51.034;3.744;2022-07-22T09:40:35;21.80;1.00
21625;DHT22;10974;51.034;3.744;2022-07-22T09:43:05;21.80;99.90
21625;DHT22;10974;51.034;3.744;2022-07-22T09:45:34;21.90;99.90
21625;DHT22;10974;51.034;3.744;2022-07-22T09:48:01;22.20;1.00
21625;DHT22;10974;51.034;3.744;2022-07-22T09:50:32;22.20;99.90
21625;DHT22;10974;51.034;3.744;2022-07-22T09:53:00;22.20;99.90
21625;DHT22;10974;51.034;3.744;2022-07-22T09:55:27;22.10;1.00
21625;DHT22;10974;51.034;3.744;2022-07-22T09:57:54;22.30;99.90
21625;DHT22;10974;51.034;3.744;2022-07-22T10:00:25;22.40;99.90
21625;DHT22;10974;51.034;3.744;2022-07-22T10:02:53;22.90;1.00
21625;DHT22;10974;51.034;3.744;2022-07-22T10:05:32;23.20;99.90
21625;DHT22;10974;51.034;3.744;2022-07-22T10:07:58;23.50;1.00
21625;DHT22;10974;51.034;3.744;2022-07-22T10:10:27;23.80;1.00
21625;DHT22;10974;51.034;3.744;2022-07-22T10:12:55;24.00;1.00
21625;DHT22;10974;51.034;3.744;2022-07-22T10:15:22;24.00;99.90
21625;DHT22;10974;51.034;3.744;2022-07-22T10:17:50;24.10;99.90
21625;DHT22;10974;51.034;3.744;2022-07-22T10:20:28;24.10;1.00
21625;DHT22;10974;51.034;3.744;2022-07-22T10:25:22;24.30;1.00
21625;DHT22;10974;51.034;3.744;2022-07-22T10:28:01;24.40;1.00
21625;DHT22;10974;51.034;3.744;2022-07-22T10:30:29;24.40;1.00
21625;DHT22;10974;51.034;3.744;2022-07-22T10:33:07;24.40;1.00
21625;DHT22;10974;51.034;3.744;2022-07-22T10:35:35;24.50;1.00
21625;DHT22;10974;51.034;3.744;2022-07-22T10:38:04;24.50;1.00
21625;DHT22;10974;51.034;3.744;2022-07-22T10:40:45;24.50;1.00
21625;DHT22;10974;51.034;3.744;2022-07-22T10:43:12;24.50;1.00
21625;DHT22;10974;51.034;3.744;2022-07-22T10:45:40;24.50;1.00
21625;DHT22;10974;51.034;3.744;2022-07-22T10:48:08;24.60;1.00
21625;DHT22;10974;51.034;3.744;2022-07-22T10:53:25;24.40;1.00
21625;DHT22;10974;51.034;3.744;2022-07-22T10:56:37;24.40;99.90
21625;DHT22;10974;51.034;3.744;2022-07-22T10:59:14;24.30;99.90
21625;DHT22;10974;51.034;3.744;2022-07-22T11:01:45;24.30;99.90
21625;DHT22;10974;51.034;3.744;2022-07-22T11:06:39;24.50;1.00
21625;DHT22;10974;51.034;3.744;2022-07-22T11:09:10;24.50;1.00
21625;DHT22;10974;51.034;3.744;2022-07-22T11:11:46;24.60;1.00
21625;DHT22;10974;51.034;3.744;2022-07-22T11:16:42;24.60;1.00
21625;DHT22;10974;51.034;3.744;2022-07-22T11:19:09;24.60;99.90
21625;DHT22;10974;51.034;3.744;2022-07-22T11:21:35;24.60;99.90
21625;DHT22;10974;51.034;3.744;2022-07-22T11:24:04;24.60;99.90
21625;DHT22;10974;51.034;3.744;2022-07-22T11:29:02;24.70;1.00
21625;DHT22;10974;51.034;3.744;2022-07-22T11:31:28;24.80;1.00
21625;DHT22;10974;51.034;3.744;2022-07-22T11:34:08;24.80;1.00
21625;DHT22;10974;51.034;3.744;2022-07-22T11:36:36;24.90;1.00
21625;DHT22;10974;51.034;3.744;2022-07-22T11:39:03;24.80;1.00
21625;DHT22;10974;51.034;3.744;2022-07-22T11:41:30;24.70;99.90
21625;DHT22;10974;51.034;3.744;2022-07-22T11:43:58;24.70;99.90
21625;DHT22;10974;51.034;3.744;2022-07-22T11:46:25;24.70;99.90
21625;DHT22;10974;51.034;3.744;2022-07-22T11:48:52;24.80;99.90
21625;DHT22;10974;51.034;3.744;2022-07-22T11:51:18;24.70;99.90
21625;DHT22;10974;51.034;3.744;2022-07-22T11:53:44;24.60;99.90
21625;DHT22;10974;51.034;3.744;2022-07-22T11:56:12;24.70;99.90
21625;DHT22;10974;51.034;3.744;2022-07-22T11:58:40;24.80;99.90
21625;DHT22;10974;51.034;3.744;2022-07-22T12:01:15;24.90;99.90
21625;DHT22;10974;51.034;3.744;2022-07-22T12:03:45;24.90;99.90
21625;DHT22;10974;51.034;3.744;2022-07-22T12:06:13;24.90;1.00
21625;DHT22;10974;51.034;3.744;2022-07-22T12:08:42;25.00;1.00
21625;DHT22;10974;51.034;3.744;2022-07-22T12:11:10;24.90;99.90
21625;DHT22;10974;51.034;3.744;2022-07-22T12:13:44;24.90;1.00
21625;DHT22;10974;51.034;3.744;2022-07-22T12:16:29;24.90;99.90
21625;DHT22;10974;51.034;3.744;2022-07-22T12:19:06;24.90;99.90
21625;DHT22;10974;51.034;3.744;2022-07-22T12:21:34;24.90;99.90
21625;DHT22;10974;51.034;3.744;2022-07-22T12:37:32;25.00;1.00
21625;DHT22;10974;51.034;3.744;2022-07-22T12:40:04;24.80;99.90
21625;DHT22;10974;51.034;3.744;2022-07-22T12:42:36;24.90;99.90
21625;DHT22;10974;51.034;3.744;2022-07-22T12:45:04;24.90;99.90
21625;DHT22;10974;51.034;3.744;2022-07-22T12:48:00;25.00;99.90
21625;DHT22;10974;51.034;3.744;2022-07-22T12:50:44;25.10;1.00
21625;DHT22;10974;51.034;3.744;2022-07-22T12:53:18;25.10;1.00
21625;DHT22;10974;51.034;3.744;2022-07-22T12:55:49;25.10;1.00
21625;DHT22;10974;51.034;3.744;2022-07-22T12:58:20;25.00;99.90
21625;DHT22;10974;51.034;3.744;2022-07-22T13:00:49;25.00;99.90
21625;DHT22;10974;51.034;3.744;2022-07-22T13:03:15;25.00;99.90
21625;DHT22;10974;51.034;3.744;2022-07-22T13:05:45;25.00;99.90
21625;DHT22;10974;51.034;3.744;2022-07-22T13:08:11;25.00;99.90
21625;DHT22;10974;51.034;3.744;2022-07-22T13:10:37;25.10;99.90
21625;DHT22;10974;51.034;3.744;2022-07-22T13:13:03;25.10;99.90
21625;DHT22;10974;51.034;3.744;2022-07-22T13:15:28;25.10;99.90
21625;DHT22;10974;51.034;3.744;2022-07-22T13:17:54;25.10;99.90
21625;DHT22;10974;51.034;3.744;2022-07-22T13:20:19;25.10;99.90
21625;DHT22;10974;51.034;3.744;2022-07-22T13:22:48;25.10;99.90
21625;DHT22;10974;51.034;3.744;2022-07-22T13:25:14;25.10;99.90
21625;DHT22;10974;51.034;3.744;2022-07-22T13:27:40;25.00;99.90
21625;DHT22;10974;51.034;3.744;2022-07-22T13:30:06;25.10;99.90
21625;DHT22;10974;51.034;3.744;2022-07-22T13:32:32;25.10;99.90
21625;DHT22;10974;51.034;3.744;2022-07-22T13:34:58;25.10;99.90
21625;DHT22;10974;51.034;3.744;2022-07-22T13:37:24;25.10;99.90
21625;DHT22;10974;51.034;3.744;2022-07-22T13:39:50;25.20;99.90
21625;DHT22;10974;51.034;3.744;2022-07-22T13:42:16;25.20;99.90
21625;DHT22;10974;51.034;3.744;2022-07-22T13:44:46;25.20;99.90
21625;DHT22;10974;51.034;3.744;2022-07-22T13:47:12;25.10;99.90
21625;DHT22;10974;51.034;3.744;2022-07-22T13:49:38;25.10;99.90
21625;DHT22;10974;51.034;3.744;2022-07-22T13:52:04;25.10;99.90
21625;DHT22;10974;51.034;3.744;2022-07-22T13:54:31;25.10;99.90
21625;DHT22;10974;51.034;3.744;2022-07-22T13:56:58;25.10;99.90
21625;DHT22;10974;51.034;3.744;2022-07-22T13:59:24;25.10;99.90
21625;DHT22;10974;51.034;3.744;2022-07-22T14:01:50;25.00;99.90
21625;DHT22;10974;51.034;3.744;2022-07-22T14:04:16;25.10;99.90
21625;DHT22;10974;51.034;3.744;2022-07-22T14:06:41;25.00;99.90
21625;DHT22;10974;51.034;3.744;2022-07-22T14:09:07;25.00;99.90
21625;DHT22;10974;51.034;3.744;2022-07-22T14:11:33;25.10;99.90
21625;DHT22;10974;51.034;3.744;2022-07-22T14:14:02;25.10;99.90
21625;DHT22;10974;51.034;3.744;2022-07-22T14:16:28;25.10;99.90
21625;DHT22;10974;51.034;3.744;2022-07-22T14:19:08;25.10;99.90
21625;DHT22;10974;51.034;3.744;2022-07-22T14:21:36;25.10;99.90
21625;DHT22;10974;51.034;3.744;2022-07-22T14:24:02;25.10;99.90
21625;DHT22;10974;51.034;3.744;2022-07-22T14:26:28;25.10;99.90
21625;DHT22;10974;51.034;3.744;2022-07-22T14:28:54;25.10;99.90
21625;DHT22;10974;51.034;3.744;2022-07-22T14:31:20;25.20;99.90
21625;DHT22;10974;51.034;3.744;2022-07-22T14:33:46;25.10;99.90
21625;DHT22;10974;51.034;3.744;2022-07-22T14:36:12;25.10;99.90
21625;DHT22;10974;51.034;3.744;2022-07-22T14:38:38;25.20;99.90
21625;DHT22;10974;51.034;3.744;2022-07-22T14:41:04;25.10;99.90
21625;DHT22;10974;51.034;3.744;2022-07-22T14:43:30;25.10;99.90
21625;DHT22;10974;51.034;3.744;2022-07-22T14:45:56;25.10;99.90
21625;DHT22;10974;51.034;3.744;2022-07-22T14:48:21;25.20;1.00
21625;DHT22;10974;51.034;3.744;2022-07-22T14:50:47;25.20;1.00
21625;DHT22;10974;51.034;3.744;2022-07-22T14:53:13;25.20;1.00
21625;DHT22;10974;51.034;3.744;2022-07-22T14:55:39;25.30;1.00
21625;DHT22;10974;51.034;3.744;2022-07-22T14:58:05;25.20;1.00
21625;DHT22;10974;51.034;3.744;2022-07-22T15:00:30;25.30;1.00
21625;DHT22;10974;51.034;3.744;2022-07-22T15:02:56;25.20;1.00
21625;DHT22;10974;51.034;3.744;2022-07-22T15:05:22;25.10;1.00
21625;DHT22;10974;51.034;3.744;2022-07-22T15:07:49;25.20;1.00
21625;DHT22;10974;51.034;3.744;2022-07-22T15:10:15;25.20;1.00
21625;DHT22;10974;51.034;3.744;2022-07-22T15:12:41;25.10;1.00
21625;DHT22;10974;51.034;3.744;2022-07-22T15:15:07;25.10;1.00
21625;DHT22;10974;51.034;3.744;2022-07-22T15:17:34;25.00;99.90
21625;DHT22;10974;51.034;3.744;2022-07-22T15:20:00;25.00;99.90
21625;DHT22;10974;51.034;3.744;2022-07-22T15:22:26;24.90;99.90
21625;DHT22;10974;51.034;3.744;2022-07-22T15:24:53;24.90;99.90
21625;DHT22;10974;51.034;3.744;2022-07-22T15:27:19;24.90;99.90
21625;DHT22;10974;51.034;3.744;2022-07-22T15:29:45;25.00;99.90
21625;DHT22;10974;51.034;3.744;2022-07-22T15:32:13;25.00;99.90
21625;DHT22;10974;51.034;3.744;2022-07-22T15:34:39;25.00;99.90
21625;DHT22;10974;51.034;3.744;2022-07-22T15:37:05;25.00;99.90
21625;DHT22;10974;51.034;3.744;2022-07-22T15:39:30;25.00;99.90
21625;DHT22;10974;51.034;3.744;2022-07-22T15:41:56;25.00;99.90
21625;DHT22;10974;51.034;3.744;2022-07-22T15:44:22;25.10;1.00
21625;DHT22;10974;51.034;3.744;2022-07-22T15:46:48;25.00;1.00
21625;DHT22;10974;51.034;3.744;2022-07-22T15:49:14;25.00;1.00
21625;DHT22;10974;51.034;3.744;2022-07-22T15:51:40;25.00;1.00
21625;DHT22;10974;51.034;3.744;2022-07-22T15:54:05;25.00;1.00
21625;DHT22;10974;51.034;3.744;2022-07-22T15:56:31;25.10;1.00
21625;DHT22;10974;51.034;3.744;2022-07-22T15:58:58;25.00;1.00
21625;DHT22;10974;51.034;3.744;2022-07-22T16:01:42;25.00;1.00
21625;DHT22;10974;51.034;3.744;2022-07-22T16:04:09;24.90;1.00
21625;DHT22;10974;51.034;3.744;2022-07-22T16:06:35;24.80;1.00